createdAt,value
2023-03-29T00:01:34.855Z,98601.91
2023-03-29T00:04:42.496Z,98598.38
2023-03-29T00:07:54.585Z,98602.25
2023-03-29T00:11:04.093Z,98600.66
2023-03-29T00:14:11.723Z,98604.00
2023-03-29T00:17:17.879Z,98590.81
2023-03-29T00:20:24.772Z,98601.06
2023-03-29T00:23:31.025Z,98600.88
2023-03-29T00:26:40.449Z,98601.72
2023-03-29T00:29:46.582Z,98597.19
2023-03-29T00:32:53.701Z,98582.06
2023-03-29T00:35:59.804Z,98591.22
2023-03-29T00:39:06.930Z,98591.63
2023-03-29T00:42:20.463Z,98581.38
2023-03-29T00:45:36.279Z,98593.97
2023-03-29T00:48:42.356Z,98589.41
2023-03-29T00:51:50.322Z,98587.91
2023-03-29T00:55:02.892Z,98587.81
2023-03-29T00:58:19.928Z,98586.22
2023-03-29T01:01:35.817Z,98587.31
2023-03-29T01:04:50.713Z,98584.84
2023-03-29T01:08:07.049Z,98583.84
2023-03-29T01:11:22.528Z,98571.31
2023-03-29T01:14:42.097Z,98576.69
2023-03-29T01:17:52.037Z,98564.34
2023-03-29T01:21:24.333Z,98565.13
2023-03-29T01:25:02.849Z,98560.97
2023-03-29T01:28:22.648Z,98561.75
2023-03-29T01:31:36.174Z,98561.16
2023-03-29T01:34:55.054Z,98552.06
2023-03-29T01:38:11.766Z,98553.72
2023-03-29T01:41:18.185Z,98552.84
2023-03-29T01:44:45.681Z,98545.94
2023-03-29T01:48:05.708Z,98543.31
2023-03-29T01:51:21.621Z,98542.66
2023-03-29T01:54:38.881Z,98542.66
2023-03-29T01:57:50.429Z,98538.44
2023-03-29T02:01:05.972Z,98544.50
2023-03-29T02:04:20.087Z,98542.81
2023-03-29T02:07:37.644Z,98545.25
2023-03-29T02:10:45.612Z,98547.19
2023-03-29T02:13:51.877Z,98546.31
2023-03-29T02:17:19.384Z,98542.81
2023-03-29T02:20:37.236Z,98543.06
2023-03-29T02:23:49.686Z,98549.03
2023-03-29T02:26:56.130Z,98543.81
2023-03-29T02:30:08.851Z,98548.19
2023-03-29T02:33:26.040Z,98538.25
2023-03-29T02:36:43.630Z,98545.66
2023-03-29T02:39:54.706Z,98544.88
2023-03-29T02:43:04.551Z,98544.72
2023-03-29T02:46:13.980Z,98545.88
2023-03-29T02:49:23.929Z,98547.16
2023-03-29T02:52:39.600Z,98558.00
2023-03-29T02:55:47.225Z,98559.00
2023-03-29T02:58:53.312Z,98547.16
2023-03-29T03:02:00.515Z,98549.75
2023-03-29T03:05:11.758Z,98550.47
2023-03-29T03:08:19.057Z,98552.69
2023-03-29T03:11:26.289Z,98543.81
2023-03-29T03:14:33.126Z,98553.53
2023-03-29T03:17:41.297Z,98557.28
2023-03-29T03:20:59.586Z,98556.00
2023-03-29T03:24:10.457Z,98555.72
2023-03-29T03:27:19.239Z,98554.78
2023-03-29T03:30:25.983Z,98547.53
2023-03-29T03:33:51.556Z,98549.53
2023-03-29T03:37:29.547Z,98540.81
2023-03-29T03:40:36.552Z,98541.41
2023-03-29T03:43:46.336Z,98536.91
2023-03-29T03:47:00.382Z,98540.56
2023-03-29T03:50:15.815Z,98540.41
2023-03-29T03:53:27.541Z,98546.03
2023-03-29T03:56:53.856Z,98547.63
2023-03-29T04:00:19.558Z,98550.16
2023-03-29T04:03:39.393Z,98548.66
2023-03-29T04:06:48.569Z,98544.19
2023-03-29T04:10:16.804Z,98544.56
2023-03-29T04:13:31.773Z,98544.94
2023-03-29T04:16:51.469Z,98545.88
2023-03-29T04:20:24.726Z,98532.78
2023-03-29T04:23:39.182Z,98539.50
2023-03-29T04:26:50.279Z,98538.44
2023-03-29T04:30:05.186Z,98531.16
2023-03-29T04:33:32.433Z,98533.34
2023-03-29T04:36:40.617Z,98538.50
2023-03-29T04:39:55.763Z,98535.66
2023-03-29T04:43:05.018Z,98535.72
2023-03-29T04:46:13.477Z,98534.66
2023-03-29T04:49:40.323Z,98526.13
2023-03-29T04:52:52.395Z,98533.66
2023-03-29T04:55:59.801Z,98535.38
2023-03-29T04:59:35.417Z,98533.56
2023-03-29T05:02:48.527Z,98531.00
2023-03-29T05:06:15.463Z,98532.69
2023-03-29T05:09:28.389Z,98527.88
2023-03-29T05:12:41.746Z,98534.47
2023-03-29T05:15:50.540Z,98527.97
2023-03-29T05:18:57.450Z,98534.00
2023-03-29T05:22:05.188Z,98535.22
2023-03-29T05:25:14.463Z,98540.28
2023-03-29T05:28:23.617Z,98534.97
2023-03-29T05:31:33.130Z,98536.69
2023-03-29T05:34:39.608Z,98538.75
2023-03-29T05:37:47.644Z,98533.97
2023-03-29T05:40:56.684Z,98548.69
2023-03-29T05:44:10.927Z,98552.16
2023-03-29T05:47:24.113Z,98546.63
2023-03-29T05:50:32.313Z,98549.03
2023-03-29T05:53:41.520Z,98540.94
2023-03-29T05:56:48.495Z,98539.31
2023-03-29T05:59:58.944Z,98541.47
2023-03-29T06:03:19.922Z,98541.22
2023-03-29T06:06:27.007Z,98536.69
2023-03-29T06:09:34.243Z,98544.09
2023-03-29T06:12:43.324Z,98544.56
2023-03-29T06:15:50.317Z,98543.47
2023-03-29T06:19:08.441Z,98548.34
2023-03-29T06:22:17.506Z,98556.19
2023-03-29T06:25:23.655Z,98545.81
2023-03-29T06:28:31.234Z,98548.72
2023-03-29T06:31:39.062Z,98548.00
2023-03-29T06:34:51.189Z,98542.50
2023-03-29T06:38:25.144Z,98549.28
2023-03-29T06:41:50.555Z,98553.28
2023-03-29T06:45:41.822Z,98553.22
2023-03-29T06:48:58.879Z,98550.72
2023-03-29T06:52:29.369Z,98552.84
2023-03-29T06:55:36.406Z,98555.00
2023-03-29T06:59:08.807Z,98555.47
2023-03-29T07:02:23.492Z,98564.47
2023-03-29T07:05:41.060Z,98564.69
2023-03-29T07:09:00.129Z,98557.81
2023-03-29T07:12:25.400Z,98559.63
2023-03-29T07:15:37.070Z,98569.63
2023-03-29T07:18:59.220Z,98566.53
2023-03-29T07:22:49.461Z,98563.72
2023-03-29T07:25:58.555Z,98559.75
2023-03-29T07:29:13.560Z,98558.53
2023-03-29T07:32:19.648Z,98565.47
2023-03-29T07:35:36.461Z,98553.06
2023-03-29T07:38:49.462Z,98552.50
2023-03-29T07:42:10.323Z,98558.00
2023-03-29T07:45:26.900Z,98559.63
2023-03-29T07:48:46.477Z,98553.16
2023-03-29T07:51:54.329Z,98549.09
2023-03-29T07:55:02.542Z,98565.13
2023-03-29T07:58:36.187Z,98552.47
2023-03-29T08:01:50.436Z,98550.13
2023-03-29T08:05:29.165Z,98556.47
2023-03-29T08:08:50.477Z,98548.22
2023-03-29T08:11:57.887Z,98542.28
2023-03-29T08:15:19.750Z,98544.47
2023-03-29T08:18:26.569Z,98540.47
2023-03-29T08:21:33.791Z,98531.78
2023-03-29T08:24:42.806Z,98538.38
2023-03-29T08:27:50.115Z,98528.56
2023-03-29T08:31:11.435Z,98536.88
2023-03-29T08:34:21.703Z,98536.38
2023-03-29T08:37:39.534Z,98527.78
2023-03-29T08:40:46.977Z,98532.00
2023-03-29T08:44:20.889Z,98536.13
2023-03-29T08:47:55.558Z,98521.28
2023-03-29T08:51:09.945Z,98517.16
2023-03-29T08:54:29.020Z,98515.63
2023-03-29T08:58:11.469Z,98518.00
2023-03-29T09:01:19.128Z,98512.72
2023-03-29T09:04:42.817Z,98518.63
2023-03-29T09:08:02.167Z,98521.84
2023-03-29T09:11:42.149Z,98503.88
2023-03-29T09:15:15.628Z,98515.19
2023-03-29T09:18:51.858Z,98505.91
2023-03-29T09:22:22.757Z,98498.53
2023-03-29T09:25:53.446Z,98498.25
2023-03-29T09:29:36.646Z,98494.91
2023-03-29T09:32:56.247Z,98500.31
2023-03-29T09:36:21.840Z,98480.06
2023-03-29T09:39:36.523Z,98483.81
2023-03-29T09:42:57.737Z,98479.22
2023-03-29T09:46:16.420Z,98484.47
2023-03-29T09:49:34.689Z,98487.94
2023-03-29T09:52:41.238Z,98486.28
2023-03-29T09:55:59.463Z,98483.72
2023-03-29T09:59:16.325Z,98486.06
2023-03-29T10:02:28.286Z,98480.28
2023-03-29T10:05:40.354Z,98470.53
2023-03-29T10:09:01.766Z,98475.50
2023-03-29T10:12:20.818Z,98464.78
2023-03-29T10:15:33.154Z,98466.63
2023-03-29T10:18:47.544Z,98460.69
2023-03-29T10:21:55.921Z,98463.56
2023-03-29T10:25:02.481Z,98467.66
2023-03-29T10:28:21.405Z,98462.38
2023-03-29T10:31:31.690Z,98459.63
2023-03-29T10:34:39.393Z,98464.16
2023-03-29T10:37:52.338Z,98451.25
2023-03-29T10:41:09.459Z,98448.88
2023-03-29T10:44:36.055Z,98441.59
2023-03-29T10:47:51.489Z,98439.09
2023-03-29T10:51:03.724Z,98439.69
2023-03-29T10:54:20.730Z,98427.91
2023-03-29T10:57:44.403Z,98433.16
2023-03-29T11:01:00.179Z,98424.84
2023-03-29T11:04:32.435Z,98427.63
2023-03-29T11:07:59.461Z,98414.00
2023-03-29T11:11:32.140Z,98412.88
2023-03-29T11:15:03.860Z,98407.13
2023-03-29T11:18:52.305Z,98401.91
2023-03-29T11:22:16.914Z,98400.47
2023-03-29T11:25:44.006Z,98388.75
2023-03-29T11:29:01.035Z,98376.25
2023-03-29T11:32:29.323Z,98375.13
2023-03-29T11:35:52.235Z,98371.72
2023-03-29T11:39:19.549Z,98380.03
2023-03-29T11:42:47.858Z,98376.75
2023-03-29T11:46:03.457Z,98367.50
2023-03-29T11:49:28.565Z,98360.16
2023-03-29T11:52:53.755Z,98345.56
2023-03-29T11:56:16.682Z,98350.56
2023-03-29T11:59:36.076Z,98347.72
2023-03-29T12:02:53.206Z,98336.94
2023-03-29T12:06:10.058Z,98343.69
2023-03-29T12:09:34.828Z,98344.16
2023-03-29T12:12:53.160Z,98336.63
2023-03-29T12:16:14.637Z,98326.50
2023-03-29T12:19:32.031Z,98338.78
2023-03-29T12:22:41.707Z,98333.50
2023-03-29T12:26:07.018Z,98323.41
2023-03-29T12:29:48.760Z,98329.22
2023-03-29T12:33:27.877Z,98321.44
2023-03-29T12:37:12.253Z,98315.84
2023-03-29T12:40:46.754Z,98318.13
2023-03-29T12:44:23.762Z,98311.78
2023-03-29T12:47:44.436Z,98303.75
2023-03-29T12:51:01.132Z,98313.25
2023-03-29T12:54:16.455Z,98307.63
2023-03-29T12:57:30.175Z,98298.72
2023-03-29T13:00:50.680Z,98291.97
2023-03-29T13:04:17.217Z,98290.59
2023-03-29T13:07:36.857Z,98293.94
2023-03-29T13:10:46.031Z,98295.50
2023-03-29T13:13:55.818Z,98283.94
2023-03-29T13:17:18.487Z,98275.81
2023-03-29T13:20:48.506Z,98281.94
2023-03-29T13:24:14.058Z,98281.78
2023-03-29T13:27:39.992Z,98272.47
2023-03-29T13:31:02.928Z,98276.94
2023-03-29T13:34:35.002Z,98268.00
2023-03-29T13:38:01.082Z,98269.81
2023-03-29T13:41:10.141Z,98266.31
2023-03-29T13:44:44.717Z,98261.31
2023-03-29T13:48:04.238Z,98251.03
2023-03-29T13:51:36.628Z,98245.91
2023-03-29T13:54:53.225Z,98248.03
2023-03-29T13:58:07.603Z,98239.09
2023-03-29T14:01:28.450Z,98234.97
2023-03-29T14:04:47.515Z,98247.75
2023-03-29T14:07:58.953Z,98245.56
2023-03-29T14:11:11.349Z,98238.78
2023-03-29T14:14:18.347Z,98240.09
2023-03-29T14:17:28.005Z,98235.13
2023-03-29T14:20:37.997Z,98233.47
2023-03-29T14:24:08.451Z,98234.75
2023-03-29T14:27:16.525Z,98231.09
2023-03-29T14:30:30.934Z,98223.09
2023-03-29T14:33:38.406Z,98223.38
2023-03-29T14:36:49.368Z,98219.78
2023-03-29T14:39:59.757Z,98205.25
2023-03-29T14:43:17.683Z,98212.50
2023-03-29T14:46:25.996Z,98196.75
2023-03-29T14:49:35.067Z,98199.50
2023-03-29T14:52:41.696Z,98206.38
2023-03-29T14:56:01.945Z,98199.41
2023-03-29T14:59:38.454Z,98198.19
2023-03-29T15:02:53.660Z,98193.94
2023-03-29T15:06:11.547Z,98195.44
2023-03-29T15:09:31.199Z,98183.84
2023-03-29T15:12:46.743Z,98191.25
2023-03-29T15:16:00.343Z,98194.84
2023-03-29T15:19:09.619Z,98193.59
2023-03-29T15:22:16.471Z,98183.66
2023-03-29T15:25:24.522Z,98186.78
2023-03-29T15:28:36.842Z,98182.47
2023-03-29T15:31:46.523Z,98184.94
2023-03-29T15:35:05.242Z,98186.31
2023-03-29T15:38:15.626Z,98181.59
2023-03-29T15:41:23.473Z,98172.38
2023-03-29T15:44:37.496Z,98173.69
2023-03-29T15:47:45.470Z,98167.03
2023-03-29T15:50:53.450Z,98170.88
2023-03-29T15:54:03.940Z,98159.91
2023-03-29T15:57:24.199Z,98160.91
2023-03-29T16:00:34.176Z,98162.28
2023-03-29T16:03:40.510Z,98158.53
2023-03-29T16:07:06.734Z,98164.31
2023-03-29T16:10:13.679Z,98156.44
2023-03-29T16:13:20.668Z,98150.88
2023-03-29T16:16:36.112Z,98147.28
2023-03-29T16:19:42.980Z,98147.91
2023-03-29T16:22:50.373Z,98148.50
2023-03-29T16:25:59.367Z,98145.06
2023-03-29T16:29:05.444Z,98139.84
2023-03-29T16:32:15.667Z,98148.78
2023-03-29T16:35:29.819Z,98153.38
2023-03-29T16:38:36.824Z,98155.66
2023-03-29T16:41:45.553Z,98147.28
2023-03-29T16:44:52.575Z,98154.25
2023-03-29T16:48:02.041Z,98153.78
2023-03-29T16:51:10.303Z,98149.13
2023-03-29T16:54:26.036Z,98156.41
2023-03-29T16:57:38.100Z,98156.97
2023-03-29T17:00:47.965Z,98159.59
2023-03-29T17:03:58.139Z,98160.03
2023-03-29T17:07:08.433Z,98160.56
2023-03-29T17:10:16.805Z,98159.81
2023-03-29T17:13:30.004Z,98157.84
2023-03-29T17:16:36.994Z,98166.75
2023-03-29T17:19:45.958Z,98167.13
2023-03-29T17:22:59.875Z,98167.06
2023-03-29T17:26:10.116Z,98169.97
2023-03-29T17:29:27.390Z,98166.59
2023-03-29T17:32:33.562Z,98170.47
2023-03-29T17:35:45.487Z,98172.81
2023-03-29T17:38:51.555Z,98173.13
2023-03-29T17:42:04.641Z,98171.06
2023-03-29T17:45:13.371Z,98171.97
2023-03-29T17:48:20.499Z,98179.47
2023-03-29T17:51:37.372Z,98175.38
2023-03-29T17:54:50.708Z,98176.03
2023-03-29T17:57:57.589Z,98172.53
2023-03-29T18:01:14.996Z,98174.03
2023-03-29T18:04:21.490Z,98172.44
2023-03-29T18:07:31.135Z,98173.53
2023-03-29T18:10:37.264Z,98182.97
2023-03-29T18:13:44.508Z,98181.59
2023-03-29T18:16:50.784Z,98187.88
2023-03-29T18:20:21.042Z,98198.72
2023-03-29T18:23:34.076Z,98193.56
2023-03-29T18:26:43.265Z,98200.03
2023-03-29T18:29:49.403Z,98192.25
2023-03-29T18:32:56.320Z,98198.66
2023-03-29T18:36:03.083Z,98202.31
2023-03-29T18:39:14.506Z,98188.75
2023-03-29T18:42:22.135Z,98183.06
2023-03-29T18:45:29.049Z,98182.22
2023-03-29T18:48:42.259Z,98180.25
2023-03-29T18:51:50.329Z,98180.53
2023-03-29T18:54:59.065Z,98186.00
2023-03-29T18:58:25.851Z,98171.00
2023-03-29T19:01:31.929Z,98170.16
2023-03-29T19:04:38.854Z,98164.50
2023-03-29T19:07:44.986Z,98174.22
2023-03-29T19:10:54.614Z,98184.47
2023-03-29T19:14:00.953Z,98183.53
2023-03-29T19:17:11.010Z,98192.00
2023-03-29T19:20:18.020Z,98184.91
2023-03-29T19:23:30.750Z,98186.00
2023-03-29T19:26:39.572Z,98187.53
2023-03-29T19:29:46.589Z,98184.34
2023-03-29T19:32:53.668Z,98191.28
2023-03-29T19:36:08.599Z,98193.38
2023-03-29T19:39:15.105Z,98188.38
2023-03-29T19:42:24.748Z,98187.66
2023-03-29T19:45:31.328Z,98172.53
2023-03-29T19:48:38.472Z,98185.97
2023-03-29T19:51:44.794Z,98176.53
2023-03-29T19:54:51.747Z,98168.22
2023-03-29T19:58:09.346Z,98167.38
2023-03-29T20:01:21.048Z,98172.66
2023-03-29T20:04:36.227Z,98165.97
2023-03-29T20:07:43.178Z,98176.13
2023-03-29T20:10:49.254Z,98174.81
2023-03-29T20:13:58.791Z,98172.19
2023-03-29T20:17:11.597Z,98172.97
2023-03-29T20:20:19.566Z,98162.59
2023-03-29T20:23:25.666Z,98156.34
2023-03-29T20:26:32.582Z,98156.91
2023-03-29T20:29:44.194Z,98157.91
2023-03-29T20:32:53.332Z,98160.63
2023-03-29T20:35:59.428Z,98153.09
2023-03-29T20:39:08.238Z,98149.19
2023-03-29T20:42:20.752Z,98144.31
2023-03-29T20:45:51.611Z,98150.81
2023-03-29T20:48:58.638Z,98149.13
2023-03-29T20:52:06.487Z,98157.78
2023-03-29T20:55:19.586Z,98157.19
2023-03-29T20:58:31.081Z,98143.56
2023-03-29T21:01:41.342Z,98149.44
2023-03-29T21:04:52.990Z,98149.91
2023-03-29T21:08:01.189Z,98152.28
2023-03-29T21:11:21.663Z,98139.97
2023-03-29T21:14:32.430Z,98144.97
2023-03-29T21:17:51.404Z,98135.88
2023-03-29T21:20:59.828Z,98132.84
2023-03-29T21:24:13.761Z,98127.72
2023-03-29T21:27:19.981Z,98124.28
2023-03-29T21:30:27.360Z,98128.09
2023-03-29T21:33:38.625Z,98122.56
2023-03-29T21:36:45.600Z,98126.47
2023-03-29T21:39:51.824Z,98119.19
2023-03-29T21:42:58.738Z,98120.53
2023-03-29T21:46:04.729Z,98118.56
2023-03-29T21:49:14.709Z,98119.16
2023-03-29T21:52:21.877Z,98105.03
2023-03-29T21:55:28.671Z,98107.22
2023-03-29T21:58:34.765Z,98104.31
2023-03-29T22:01:51.988Z,98109.59
2023-03-29T22:05:00.772Z,98108.47
2023-03-29T22:08:10.627Z,98104.47
2023-03-29T22:11:19.539Z,98098.56
2023-03-29T22:14:26.482Z,98094.03
2023-03-29T22:17:32.507Z,98097.84
2023-03-29T22:20:42.472Z,98091.75
2023-03-29T22:23:52.586Z,98085.00
2023-03-29T22:26:59.517Z,98093.59
2023-03-29T22:30:06.140Z,98086.09
2023-03-29T22:33:13.023Z,98083.38
2023-03-29T22:36:25.461Z,98078.13
2023-03-29T22:39:32.982Z,98075.06
2023-03-29T22:42:45.286Z,98070.09
2023-03-29T22:45:52.356Z,98071.06
2023-03-29T22:48:59.101Z,98074.38
2023-03-29T22:52:10.777Z,98073.00
2023-03-29T22:55:17.074Z,98076.75
2023-03-29T22:58:32.160Z,98061.47
2023-03-29T23:01:38.272Z,98068.13
2023-03-29T23:04:49.942Z,98064.50
2023-03-29T23:07:58.865Z,98061.03
2023-03-29T23:11:07.589Z,98056.44
2023-03-29T23:14:15.169Z,98054.06
2023-03-29T23:17:22.860Z,98048.94
2023-03-29T23:20:29.398Z,98049.22
2023-03-29T23:23:39.136Z,98047.41
2023-03-29T23:26:45.838Z,98040.88
2023-03-29T23:29:52.715Z,98050.72
2023-03-29T23:33:00.413Z,98048.63
2023-03-29T23:36:11.374Z,98047.53
2023-03-29T23:39:25.883Z,98053.09
2023-03-29T23:42:33.287Z,98043.91
2023-03-29T23:45:40.995Z,98036.94
2023-03-29T23:48:49.678Z,98033.22
2023-03-29T23:51:56.329Z,98039.97
2023-03-29T23:55:11.457Z,98041.09
2023-03-29T23:58:19.370Z,98028.47
